Time;durP1;ratioP1;P1;durP2;ratioP2;P2;SDS_P1;SDS_P2;PMS_P1;PMS_P2;Temp;Humidity;BMP_temperature;BMP_pressure;BME280_temperature;BME280_humidity;BME280_pressure;Samples;Min_cycle;Max_cycle;Signal;HPM_P1;HPM_P2
2024/03/15 00:00:46;;;;;;;24.25;15.50;;;231.20;2252.80;;;;;;5040774;28;20391;-75
2024/03/15 00:03:12;;;;;;;26.58;14.10;;;231.10;2252.80;;;;;;5042751;28;20021;-76
2024/03/15 00:05:38;;;;;;;22.70;14.23;;;;;;;;;;5050490;28;20039;-77
2024/03/15 00:08:04;;;;;;;23.38;13.43;;;230.80;2252.80;;;;;;5055626;28;20079;-76
2024/03/15 00:10:30;;;;;;;23.45;13.68;;;230.60;2252.80;;;;;;5026626;28;20517;-77
2024/03/15 00:12:56;;;;;;;21.00;12.70;;;230.60;2252.80;;;;;;5015997;28;20029;-75
2024/03/15 00:15:22;;;;;;;19.42;12.10;;;230.60;2252.80;;;;;;5017039;28;20053;-77
2024/03/15 00:17:48;;;;;;;18.25;11.10;;;230.50;2252.80;;;;;;5010475;28;20584;-75
2024/03/15 00:20:14;;;;;;;17.60;10.90;;;230.60;2252.80;;;;;;5009622;28;20104;-74
2024/03/15 00:22:39;;;;;;;17.80;11.05;;;230.60;2252.80;;;;;;4994451;28;20030;-71
2024/03/15 00:25:07;;;;;;;16.98;11.25;;;230.70;2252.80;;;;;;5025975;28;20030;-74
2024/03/15 00:27:33;;;;;;;17.63;11.52;;;230.90;2252.80;;;;;;5032272;28;20029;-76
2024/03/15 00:29:58;;;;;;;16.95;11.52;;;230.90;2252.80;;;;;;5031638;28;20071;-76
2024/03/15 00:32:25;;;;;;;16.77;10.82;;;231.00;2252.80;;;;;;5022890;28;20043;-75
2024/03/15 00:34:51;;;;;;;17.95;11.43;;;231.00;2252.80;;;;;;5012442;28;20033;-75
2024/03/15 00:37:17;;;;;;;16.65;11.00;;;231.00;2252.80;;;;;;5011035;28;20022;-73
2024/03/15 00:39:43;;;;;;;17.40;11.20;;;231.00;2252.80;;;;;;5011484;28;20129;-75
2024/03/15 00:42:09;;;;;;;20.25;11.55;;;231.10;2252.80;;;;;;5019368;28;20057;-76
2024/03/15 00:44:35;;;;;;;18.55;11.63;;;231.00;2252.80;;;;;;5016065;28;20033;-76
2024/03/15 00:47:00;;;;;;;19.58;11.45;;;231.10;2252.80;;;;;;5011466;28;20037;-73
2024/03/15 00:49:26;;;;;;;21.10;12.07;;;231.10;2252.80;;;;;;5012048;28;20724;-76
2024/03/15 00:51:52;;;;;;;22.00;12.55;;;231.20;2252.80;;;;;;5007067;28;20037;-76
2024/03/15 00:54:18;;;;;;;21.70;12.35;;;231.00;2252.80;;;;;;5007997;28;20065;-74
2024/03/15 00:56:43;;;;;;;20.17;11.93;;;231.00;2252.80;;;;;;5012909;28;20056;-76
2024/03/15 00:59:09;;;;;;;19.45;12.48;;;231.00;2252.80;;;;;;5009504;28;20041;-76
2024/03/15 01:01:37;;;;;;;18.40;12.10;;;231.00;2252.80;;;;;;5011170;28;20033;-76
2024/03/15 01:04:04;;;;;;;20.35;12.48;;;231.00;2252.80;;;;;;5011146;28;20038;-76
2024/03/15 01:06:32;;;;;;;19.52;12.43;;;231.00;2252.80;;;;;;5010581;28;20101;-75
2024/03/15 01:08:58;;;;;;;22.23;12.63;;;231.00;2252.80;;;;;;5013910;28;20137;-78
2024/03/15 01:11:24;;;;;;;18.38;12.13;;;231.10;2252.80;;;;;;4999527;28;20112;-74
2024/03/15 01:13:55;;;;;;;21.25;12.63;;;231.10;2252.80;;;;;;5014816;28;20042;-78
2024/03/15 01:16:21;;;;;;;20.77;13.32;;;231.00;2252.80;;;;;;5028317;28;20065;-78
2024/03/15 01:18:46;;;;;;;21.38;13.07;;;231.00;2252.80;;;;;;5015798;28;20057;-78
2024/03/15 01:21:12;;;;;;;21.20;13.35;;;231.00;2252.80;;;;;;5020231;28;20033;-78
2024/03/15 01:23:38;;;;;;;22.27;13.63;;;231.00;2252.80;;;;;;5031262;28;20025;-77
2024/03/15 01:26:04;;;;;;;23.60;13.85;;;231.10;2252.80;;;;;;5033522;28;20029;-78
2024/03/15 01:28:30;;;;;;;21.15;13.40;;;231.00;2252.80;;;;;;5033596;28;20091;-75
2024/03/15 01:30:57;;;;;;;21.30;13.35;;;230.90;2252.80;;;;;;5018563;28;20097;-77
2024/03/15 01:33:23;;;;;;;20.17;13.23;;;231.00;2252.80;;;;;;5007294;28;20493;-77
2024/03/15 01:35:50;;;;;;;22.02;13.77;;;231.00;2252.80;;;;;;5015376;28;20062;-74
2024/03/15 01:38:16;;;;;;;21.00;13.18;;;230.90;2252.80;;;;;;5016318;28;20461;-78
2024/03/15 01:40:42;;;;;;;24.27;14.48;;;230.80;2252.80;;;;;;5017620;28;20086;-77
2024/03/15 01:43:10;;;;;;;23.58;15.00;;;230.80;2252.80;;;;;;5036417;28;20100;-77
2024/03/15 01:45:36;;;;;;;24.27;15.05;;;230.80;2252.80;;;;;;5035065;28;20029;-71
2024/03/15 01:48:03;;;;;;;24.67;15.65;;;230.80;2252.80;;;;;;5030152;28;20029;-76
2024/03/15 01:50:31;;;;;;;23.63;14.98;;;230.80;2252.80;;;;;;4994003;28;20030;-76
2024/03/15 01:52:58;;;;;;;24.50;14.90;;;230.90;2252.80;;;;;;5022501;28;20135;-77
2024/03/15 01:55:24;;;;;;;23.77;14.55;;;230.90;2252.80;;;;;;5035855;28;20554;-77
2024/03/15 01:57:50;;;;;;;22.05;13.25;;;231.00;2252.80;;;;;;5035186;28;20548;-77
2024/03/15 02:00:16;;;;;;;22.20;13.88;;;231.10;2252.80;;;;;;5035288;28;20033;-77
2024/03/15 02:02:43;;;;;;;23.00;14.05;;;231.20;2252.80;;;;;;5035705;28;20052;-77
2024/03/15 02:05:10;;;;;;;23.85;15.07;;;231.20;2252.80;;;;;;5010674;28;20026;-77
2024/03/15 02:07:36;;;;;;;25.40;15.57;;;231.20;2252.80;;;;;;4994848;28;20046;-77
2024/03/15 02:10:13;;;;;;;23.67;14.50;;;231.30;2252.80;;;;;;4992831;28;20054;-75
2024/03/15 02:12:39;;;;;;;24.10;14.63;;;231.30;2252.80;;;;;;5007930;28;20057;-76
2024/03/15 02:15:07;;;;;;;25.65;14.88;;;231.30;2252.80;;;;;;5038542;28;20049;-75
2024/03/15 02:17:33;;;;;;;23.35;15.48;;;231.30;2252.80;;;;;;5038183;28;20432;-75
2024/03/15 02:20:01;;;;;;;24.13;14.35;;;231.30;2252.80;;;;;;5035612;28;20468;-77
2024/03/15 02:22:27;;;;;;;21.73;14.38;;;231.20;2252.80;;;;;;5019088;28;20025;-77
2024/03/15 02:24:52;;;;;;;22.42;14.60;;;231.10;2252.80;;;;;;5014046;28;20774;-76
2024/03/15 02:27:18;;;;;;;30.15;18.83;;;256.00;2252.80;;;;;;5015510;28;20540;-75
2024/03/15 02:29:45;;;;;;;26.77;17.23;;;231.20;2252.80;;;;;;5013607;28;20536;-77
2024/03/15 02:32:10;;;;;;;25.85;16.33;;;231.20;2252.80;;;;;;4998527;28;20394;-77
2024/03/15 02:34:36;;;;;;;28.42;16.13;;;231.20;2252.80;;;;;;5032995;28;20044;-77
2024/03/15 02:37:07;;;;;;;25.55;15.73;;;231.20;2252.80;;;;;;5019325;28;20065;-76
2024/03/15 02:39:34;;;;;;;24.50;15.10;;;231.20;2252.80;;;;;;5007199;28;20583;-76
2024/03/15 02:42:03;;;;;;;25.70;15.68;;;231.10;2252.80;;;;;;5006053;28;20018;-76
2024/03/15 02:44:30;;;;;;;23.33;15.40;;;231.20;2252.80;;;;;;5012055;28;20061;-77
2024/03/15 02:46:56;;;;;;;25.58;14.98;;;231.20;2252.80;;;;;;5027458;28;20038;-75
2024/03/15 02:49:22;;;;;;;25.75;14.30;;;231.10;2252.80;;;;;;5031776;28;20022;-77
2024/03/15 02:51:48;;;;;;;22.25;14.00;;;231.10;2252.80;;;;;;5015255;28;20040;-77
2024/03/15 02:54:14;;;;;;;24.08;14.18;;;231.20;2252.80;;;;;;5034174;28;20689;-76
2024/03/15 02:56:39;;;;;;;23.10;14.00;;;231.20;2252.80;;;;;;5034534;28;20026;-77
2024/03/15 02:59:06;;;;;;;21.40;13.82;;;231.10;2252.80;;;;;;5014660;28;20057;-75
2024/03/15 03:01:32;;;;;;;20.73;14.40;;;231.10;2252.80;;;;;;5009028;28;20018;-76
2024/03/15 03:03:58;;;;;;;22.65;14.77;;;231.20;2252.80;;;;;;5030801;28;20084;-76
2024/03/15 03:06:24;;;;;;;21.80;14.45;;;231.10;2252.80;;;;;;5025819;28;20112;-75
2024/03/15 03:08:49;;;;;;;22.40;14.52;;;231.00;2252.80;;;;;;5040428;28;20047;-76
2024/03/15 03:11:17;;;;;;;21.38;14.45;;;230.90;2252.80;;;;;;5057497;28;20028;-76
2024/03/15 03:13:43;;;;;;;23.10;14.52;;;230.80;2252.80;;;;;;5055934;28;20098;-77
2024/03/15 03:16:10;;;;;;;23.25;14.82;;;230.90;2252.80;;;;;;5057390;28;20021;-75
2024/03/15 03:18:36;;;;;;;23.45;15.30;;;230.90;2252.80;;;;;;5026733;28;20041;-71
2024/03/15 03:21:02;;;;;;;24.63;15.40;;;231.00;2252.80;;;;;;5016015;28;20048;-74
2024/03/15 03:23:28;;;;;;;24.05;15.27;;;231.10;2252.80;;;;;;5040522;28;20105;-76
2024/03/15 03:25:54;;;;;;;22.17;13.88;;;231.20;2252.80;;;;;;5053818;28;20467;-75
2024/03/15 03:28:20;;;;;;;24.73;15.20;;;231.20;2252.80;;;;;;5052862;28;20025;-76
2024/03/15 03:30:46;;;;;;;22.63;14.68;;;231.20;2252.80;;;;;;5054725;28;20395;-74
2024/03/15 03:33:13;;;;;;;23.48;15.52;;;231.20;2252.80;;;;;;5053948;28;20028;-76
2024/03/15 03:35:39;;;;;;;22.25;14.82;;;231.20;2252.80;;;;;;5032711;28;20801;-75
2024/03/15 03:38:06;;;;;;;24.40;16.98;;;231.20;2252.80;;;;;;5029191;28;20123;-75
2024/03/15 03:40:33;;;;;;;24.25;16.77;;;231.20;2252.80;;;;;;5031998;28;20033;-75
2024/03/15 03:43:01;;;;;;;24.42;16.30;;;231.10;2252.80;;;;;;5041821;28;20032;-74
2024/03/15 03:45:27;;;;;;;27.80;16.27;;;231.00;2252.80;;;;;;5053500;28;20029;-77
2024/03/15 03:47:56;;;;;;;26.05;16.27;;;230.90;2252.80;;;;;;5051788;28;20432;-76
2024/03/15 03:50:22;;;;;;;24.83;15.93;;;230.80;2252.80;;;;;;5052326;28;20043;-77
2024/03/15 03:52:48;;;;;;;24.38;15.40;;;230.80;2252.80;;;;;;5046121;28;20104;-76
2024/03/15 03:55:14;;;;;;;25.02;15.70;;;230.60;2252.80;;;;;;5031775;28;20395;-77
2024/03/15 03:57:41;;;;;;;24.77;15.10;;;230.50;2252.80;;;;;;5031536;28;20021;-73
2024/03/15 04:00:13;;;;;;;26.27;15.85;;;230.50;2252.80;;;;;;5030841;28;20060;-77
2024/03/15 04:02:40;;;;;;;24.48;15.80;;;230.50;2252.80;;;;;;5035911;28;20471;-71
2024/03/15 04:05:06;;;;;;;24.80;15.57;;;230.60;2252.80;;;;;;5048118;28;20092;-77
2024/03/15 04:07:32;;;;;;;25.60;15.43;;;230.70;2252.80;;;;;;5049531;28;20499;-76
2024/03/15 04:09:58;;;;;;;21.92;15.18;;;230.70;2252.80;;;;;;5039696;28;20072;-75
2024/03/15 04:12:26;;;;;;;25.10;16.08;;;230.80;2252.80;;;;;;5013250;28;20029;-76
2024/03/15 04:14:55;;;;;;;25.20;16.48;;;230.90;2252.80;;;;;;5049225;28;20044;-77
2024/03/15 04:17:23;;;;;;;24.13;15.75;;;230.60;2252.80;;;;;;5049089;28;20036;-76
2024/03/15 04:19:49;;;;;;;24.85;15.10;;;230.90;2252.80;;;;;;5049684;28;20036;-77
2024/03/15 04:22:16;;;;;;;25.13;15.45;;;230.90;2252.80;;;;;;5049041;28;20025;-72
2024/03/15 04:24:43;;;;;;;26.98;16.77;;;230.90;2252.80;;;;;;5049765;28;20122;-74
2024/03/15 04:27:09;;;;;;;26.17;16.15;;;230.90;2252.80;;;;;;5033341;28;20026;-76
2024/03/15 04:29:35;;;;;;;35.03;20.75;;;230.90;2252.80;;;;;;5024674;28;20040;-77
2024/03/15 04:32:03;;;;;;;32.95;18.98;;;231.00;2252.80;;;;;;5029870;28;20026;-77
2024/03/15 04:34:30;;;;;;;50.42;27.92;;;231.00;2252.80;;;;;;5048123;28;20040;-75
2024/03/15 04:36:57;;;;;;;42.40;24.27;;;231.00;2252.80;;;;;;5048697;28;20028;-76
2024/03/15 04:39:23;;;;;;;33.33;20.67;;;231.10;2252.80;;;;;;5039495;28;20057;-76
2024/03/15 04:41:48;;;;;;;28.25;18.48;;;231.10;2252.80;;;;;;5028387;28;20057;-77
2024/03/15 04:44:14;;;;;;;27.80;17.17;;;231.10;2252.80;;;;;;5039588;28;20104;-77
2024/03/15 04:46:40;;;;;;;28.33;17.33;;;231.00;2252.80;;;;;;5027392;28;20029;-76
2024/03/15 04:49:07;;;;;;;27.73;18.58;;;231.00;2252.80;;;;;;5028171;28;20452;-75
2024/03/15 04:51:33;;;;;;;28.42;17.67;;;231.00;2252.80;;;;;;5028370;28;20029;-76
2024/03/15 04:53:59;;;;;;;27.88;17.40;;;230.90;2252.80;;;;;;5044136;28;20123;-77
2024/03/15 04:56:25;;;;;;;28.00;17.27;;;230.80;2252.80;;;;;;5048201;28;20115;-77
2024/03/15 04:58:50;;;;;;;30.00;18.15;;;231.10;2252.80;;;;;;5033660;28;20034;-75
2024/03/15 05:01:16;;;;;;;30.33;18.80;;;230.70;2252.80;;;;;;5025588;28;20094;-75
2024/03/15 05:03:42;;;;;;;29.05;18.65;;;230.80;2252.80;;;;;;5007449;28;20121;-75
2024/03/15 05:06:09;;;;;;;29.17;18.20;;;230.80;2252.80;;;;;;5025786;28;20097;-75
2024/03/15 05:08:35;;;;;;;27.92;17.48;;;230.80;2252.80;;;;;;5051451;28;20593;-76
2024/03/15 05:11:01;;;;;;;25.05;16.65;;;230.70;2252.80;;;;;;5051981;28;20025;-72
2024/03/15 05:13:27;;;;;;;27.10;16.48;;;230.60;2252.80;;;;;;5037705;28;20048;-76
2024/03/15 05:15:53;;;;;;;25.77;16.70;;;230.60;2252.80;;;;;;5042393;28;20049;-77
2024/03/15 05:18:19;;;;;;;26.50;17.00;;;230.60;2252.80;;;;;;5045102;28;20069;-77
2024/03/15 05:20:48;;;;;;;23.83;15.77;;;230.50;2252.80;;;;;;5027012;28;20033;-77
2024/03/15 05:23:13;;;;;;;26.13;17.00;;;230.50;2252.80;;;;;;5024187;28;20067;-75
2024/03/15 05:25:40;;;;;;;25.85;16.40;;;230.50;2252.80;;;;;;5027764;28;20102;-76
2024/03/15 05:28:10;;;;;;;27.00;16.95;;;230.50;2252.80;;;;;;5035639;28;20164;-77
2024/03/15 05:30:36;;;;;;;27.50;17.15;;;230.40;2252.80;;;;;;5041566;28;20029;-77
2024/03/15 05:33:02;;;;;;;28.92;17.17;;;230.40;2252.80;;;;;;5051615;28;20159;-76
2024/03/15 05:35:29;;;;;;;27.23;16.63;;;230.40;2252.80;;;;;;5020192;28;20152;-75
2024/03/15 05:37:55;;;;;;;28.65;17.67;;;230.40;2252.80;;;;;;5031493;28;20029;-76
2024/03/15 05:40:24;;;;;;;26.58;16.38;;;230.40;2252.80;;;;;;5027893;28;20511;-75
2024/03/15 05:42:53;;;;;;;26.25;16.90;;;230.40;2252.80;;;;;;5020294;28;20040;-75
2024/03/15 05:45:21;;;;;;;30.92;16.80;;;230.50;2252.80;;;;;;5035572;28;20040;-76
2024/03/15 05:47:46;;;;;;;26.63;16.83;;;230.60;2252.80;;;;;;5051123;28;20033;-76
2024/03/15 05:50:12;;;;;;;28.40;18.00;;;230.60;2252.80;;;;;;5046283;28;20025;-76
2024/03/15 05:52:39;;;;;;;28.85;18.35;;;230.80;2252.80;;;;;;5032286;28;20029;-77
2024/03/15 05:55:04;;;;;;;28.63;18.83;;;230.90;2252.80;;;;;;5031207;28;20400;-77
2024/03/15 05:57:30;;;;;;;30.35;19.77;;;231.10;2252.80;;;;;;5039195;28;20029;-77
2024/03/15 05:59:56;;;;;;;30.30;19.50;;;231.10;2252.80;;;;;;5017876;28;20873;-75
2024/03/15 06:02:22;;;;;;;34.90;19.27;;;256.30;2252.80;;;;;;5026938;28;20148;-75
2024/03/15 06:04:48;;;;;;;40.42;22.67;;;231.20;2252.80;;;;;;5028960;28;20195;-75
2024/03/15 06:07:13;;;;;;;38.30;22.10;;;231.30;2252.80;;;;;;5017572;28;20078;-74
2024/03/15 06:09:41;;;;;;;33.15;18.83;;;231.30;2252.80;;;;;;5020188;28;20046;-76
2024/03/15 06:12:07;;;;;;;29.85;17.77;;;256.00;2252.80;;;;;;5014191;28;20695;-73
2024/03/15 06:14:33;;;;;;;27.63;16.98;;;256.10;2252.80;;;;;;5020953;28;20041;-77
2024/03/15 06:16:58;;;;;;;25.60;16.60;;;256.10;2252.80;;;;;;5024036;28;20029;-75
2024/03/15 06:19:24;;;;;;;28.00;17.00;;;256.10;2252.80;;;;;;5014159;28;20037;-72
2024/03/15 06:21:50;;;;;;;29.55;17.67;;;256.20;2252.80;;;;;;5006099;28;20026;-72
2024/03/15 06:24:19;;;;;;;27.50;17.38;;;256.20;2252.80;;;;;;5011354;28;20038;-74
2024/03/15 06:26:47;;;;;;;25.10;16.67;;;256.30;2252.80;;;;;;5011862;28;20057;-77
2024/03/15 06:29:16;;;;;;;28.08;17.60;;;256.40;2252.80;;;;;;5021242;28;20022;-75
2024/03/15 06:31:43;;;;;;;29.67;18.02;;;256.40;2252.80;;;;;;5026133;28;20034;-76
2024/03/15 06:34:08;;;;;;;29.55;17.50;;;256.30;2252.80;;;;;;5032683;28;20038;-73
2024/03/15 06:36:41;;;;;;;27.50;17.20;;;256.30;2252.80;;;;;;5032599;28;20499;-76
2024/03/15 06:39:24;;;;;;;27.88;17.58;;;256.20;2252.80;;;;;;5028402;28;20037;-77
2024/03/15 06:41:51;;;;;;;29.42;17.70;;;256.00;2252.80;;;;;;5022372;28;20049;-77
2024/03/15 06:49:43;;;;;;;27.45;17.27;;;231.30;2252.80;;;;;;5008222;28;20076;-75
2024/03/15 06:54:56;;;;;;;29.77;17.65;;;231.30;2252.80;;;;;;5026711;28;20456;-73
2024/03/15 06:57:23;;;;;;;28.85;17.95;;;256.00;2252.80;;;;;;5017545;28;20029;-77
2024/03/15 06:59:49;;;;;;;30.30;19.10;;;256.00;2252.80;;;;;;5025441;28;20052;-76
2024/03/15 07:02:15;;;;;;;45.92;29.33;;;256.20;2252.80;;;;;;5028159;28;20153;-71
2024/03/15 07:04:41;;;;;;;33.65;20.98;;;256.40;2252.80;;;;;;5016430;28;20026;-71
2024/03/15 07:07:07;;;;;;;36.00;22.27;;;256.40;2252.80;;;;;;5017211;28;20029;-77
2024/03/15 07:09:33;;;;;;;37.33;24.75;;;256.50;2252.80;;;;;;5025485;28;20057;-75
2024/03/15 07:11:59;;;;;;;32.03;20.60;;;256.70;2252.80;;;;;;5031199;28;20394;-77
2024/03/15 07:14:25;;;;;;;30.40;20.30;;;256.70;2252.80;;;;;;5014501;28;20135;-78
2024/03/15 07:16:50;;;;;;;30.98;18.80;;;256.80;2252.80;;;;;;5014248;28;20026;-76
2024/03/15 07:19:20;;;;;;;28.77;18.33;;;281.60;2278.40;;;;;;5014320;28;20021;-77
2024/03/15 07:21:48;;;;;;;28.65;18.35;;;256.80;2252.80;;;;;;5007144;28;20491;-76
2024/03/15 07:24:14;;;;;;;33.38;19.58;;;256.90;2252.80;;;;;;5019615;28;20026;-76
2024/03/15 07:26:39;;;;;;;30.13;18.90;;;281.60;2278.40;;;;;;5000499;28;20040;-76
2024/03/15 07:29:06;;;;;;;32.50;19.70;;;;;;;;;;5014117;28;20061;-77
2024/03/15 07:31:33;;;;;;;33.22;19.27;;;282.10;2278.40;;;;;;5008274;28;20024;-78
2024/03/15 07:33:59;;;;;;;33.97;19.23;;;281.90;2278.40;;;;;;5022278;28;20041;-78
2024/03/15 07:36:27;;;;;;;29.20;18.73;;;282.00;2278.40;;;;;;5022493;28;20056;-72
2024/03/15 07:38:53;;;;;;;30.73;20.00;;;282.00;2278.40;;;;;;5003463;28;20105;-78
2024/03/15 07:41:27;;;;;;;36.00;23.10;;;282.20;2278.40;;;;;;5013267;28;20097;-72
2024/03/15 07:43:53;;;;;;;31.45;19.45;;;282.30;2278.40;;;;;;5020114;28;20090;-78
2024/03/15 07:46:22;;;;;;;34.67;20.83;;;307.20;2304.00;;;;;;5011467;28;20145;-77
2024/03/15 07:48:47;;;;;;;33.28;21.08;;;307.40;2304.00;;;;;;5011358;28;20049;-78
2024/03/15 07:51:13;;;;;;;33.20;21.08;;;307.40;2304.00;;;;;;5006013;28;20119;-71
2024/03/15 07:53:40;;;;;;;32.67;20.92;;;307.60;2304.00;;;;;;5013736;28;20381;-70
2024/03/15 07:56:09;;;;;;;38.03;22.65;;;;;;;;;;5010110;28;20045;-72
2024/03/15 07:58:38;;;;;;;34.53;20.73;;;308.00;2304.00;;;;;;5013082;28;20129;-71
2024/03/15 08:01:08;;;;;;;36.45;21.48;;;308.00;2304.00;;;;;;5013402;28;20065;-70
2024/03/15 08:03:36;;;;;;;34.33;22.25;;;333.30;2329.60;;;;;;5031580;28;20112;-71
2024/03/15 08:06:05;;;;;;;32.20;20.67;;;333.30;2329.60;;;;;;5034095;28;20025;-73
2024/03/15 08:08:32;;;;;;;30.67;19.15;;;333.50;2329.60;;;;;;5037239;28;20544;-77
2024/03/15 08:10:58;;;;;;;32.00;20.40;;;333.30;2329.60;;;;;;5044580;28;20025;-74
2024/03/15 08:13:26;;;;;;;36.22;23.67;;;333.30;2329.60;;;;;;5030289;28;20805;-74
2024/03/15 08:15:59;;;;;;;37.17;24.60;;;333.70;2329.60;;;;;;5032090;28;20112;-76
2024/03/15 08:18:26;;;;;;;35.67;22.05;;;333.60;2329.60;;;;;;5024081;28;20061;-76
2024/03/15 08:20:53;;;;;;;42.72;26.10;;;333.70;2329.60;;;;;;5032702;28;20079;-76
2024/03/15 08:23:19;;;;;;;31.00;20.30;;;358.40;2329.60;;;;;;5039276;28;20524;-77
2024/03/15 08:25:45;;;;;;;30.20;19.20;;;358.40;2329.60;;;;;;5025254;28;20115;-75
2024/03/15 08:28:13;;;;;;;34.22;21.75;;;333.70;2329.60;;;;;;5030259;28;20116;-77
2024/03/15 08:30:43;;;;;;;29.95;19.45;;;333.60;2329.60;;;;;;5027064;28;20060;-74
2024/03/15 08:33:10;;;;;;;26.98;18.33;;;333.50;2329.60;;;;;;5029455;28;20021;-74
2024/03/15 08:35:37;;;;;;;26.45;17.48;;;333.50;2329.60;;;;;;5032047;28;20042;-73
2024/03/15 08:38:03;;;;;;;36.47;24.08;;;333.20;2329.60;;;;;;5037117;28;20495;-74
2024/03/15 08:40:28;;;;;;;31.70;20.83;;;333.50;2329.60;;;;;;5034041;28;20033;-72
2024/03/15 08:42:54;;;;;;;28.77;19.42;;;333.50;2329.60;;;;;;5030141;28;20021;-75
2024/03/15 08:45:21;;;;;;;37.40;27.30;;;333.50;2329.60;;;;;;5022001;28;20542;-77
2024/03/15 08:47:48;;;;;;;48.97;31.83;;;333.50;2329.60;;;;;;5027701;28;20021;-77
2024/03/15 08:50:14;;;;;;;79.82;49.65;;;;;;;;;;5032185;28;20085;-74
2024/03/15 08:52:41;;;;;;;32.65;21.27;;;358.90;2329.60;;;;;;5030584;28;20101;-76
2024/03/15 08:55:11;;;;;;;28.13;19.40;;;359.10;2329.60;;;;;;5030191;28;20055;-76
2024/03/15 08:57:38;;;;;;;30.55;22.05;;;384.00;2329.60;;;;;;5035540;28;20025;-74
2024/03/15 09:00:16;;;;;;;28.73;18.58;;;384.00;2329.60;;;;;;5029938;28;20385;-74
2024/03/15 09:02:41;;;;;;;26.55;17.30;;;384.40;2329.60;;;;;;5028812;28;20025;-76
2024/03/15 09:05:10;;;;;;;27.25;16.58;;;384.00;2329.60;;;;;;5026900;28;20037;-75
2024/03/15 09:07:36;;;;;;;24.23;15.93;;;384.00;2329.60;;;;;;5028369;28;20358;-76
2024/03/15 09:10:36;;;;;;;24.52;15.35;;;359.30;2329.60;;;;;;5030498;28;20038;-75
2024/03/15 09:12:55;;;;;;;27.35;16.15;;;359.20;2329.60;;;;;;5022316;28;20104;-77
2024/03/15 09:15:22;;;;;;;28.42;16.67;;;359.10;2329.60;;;;;;5028846;28;20460;-76
2024/03/15 09:17:49;;;;;;;21.10;14.98;;;359.30;2329.60;;;;;;5021173;28;20423;-74
2024/03/15 09:20:27;;;;;;;23.63;16.02;;;359.20;2329.60;;;;;;5008937;28;20026;-76
2024/03/15 09:22:53;;;;;;;21.85;14.23;;;359.30;2329.60;;;;;;5006532;28;20512;-77
2024/03/15 09:25:22;;;;;;;23.58;15.85;;;384.00;2329.60;;;;;;5019668;28;20052;-76
2024/03/15 09:27:52;;;;;;;22.67;14.90;;;384.30;2304.00;;;;;;5015707;28;20017;-77
2024/03/15 09:30:53;;;;;;;21.25;14.20;;;384.70;2278.40;;;;;;4983054;28;20050;-75
2024/03/15 09:33:23;;;;;;;20.17;14.05;;;384.90;2227.20;;;;;;5001717;28;20121;-75
2024/03/15 09:35:49;;;;;;;17.70;10.25;;;410.20;2150.40;;;;;;5008241;28;20046;-78
2024/03/15 09:38:15;;;;;;;20.85;12.80;;;410.30;2048.00;;;;;;5007581;28;20052;-75
2024/03/15 09:40:41;;;;;;;282.55;99.97;;;410.30;2022.40;;;;;;5006076;28;20045;-75
2024/03/15 09:43:14;;;;;;;137.75;53.05;;;410.20;2073.60;;;;;;4991789;28;20117;-75
2024/03/15 09:45:41;;;;;;;17.25;11.68;;;410.40;2022.40;;;;;;4984119;28;20041;-76
2024/03/15 09:48:14;;;;;;;301.95;121.03;;;410.40;1996.80;;;;;;4996270;28;20019;-75
2024/03/15 09:50:41;;;;;;;75.60;34.50;;;410.40;1996.80;;;;;;4993218;28;20046;-77
2024/03/15 09:53:09;;;;;;;105.20;61.40;;;410.20;1945.60;;;;;;4991603;28;20022;-75
2024/03/15 09:55:35;;;;;;;45.67;29.70;;;410.20;1945.60;;;;;;4991266;28;20047;-76
2024/03/15 09:58:04;;;;;;;15.35;9.07;;;410.50;1894.40;;;;;;4990645;28;20029;-72
2024/03/15 10:00:30;;;;;;;9.10;6.85;;;435.20;1868.80;;;;;;4994119;28;20092;-73
2024/03/15 10:02:56;;;;;;;9.77;6.97;;;435.50;1868.80;;;;;;5020565;28;20029;-78
2024/03/15 10:05:23;;;;;;;10.60;7.63;;;435.70;1843.20;;;;;;5026865;28;20028;-76
2024/03/15 10:07:49;;;;;;;10.13;6.95;;;435.60;1894.40;;;;;;5027701;28;20025;-77
2024/03/15 10:10:16;;;;;;;9.35;6.40;;;435.70;1868.80;;;;;;5031449;28;20056;-76
2024/03/15 10:12:44;;;;;;;8.73;6.03;;;435.90;1817.60;;;;;;5019348;28;20096;-78
2024/03/15 10:15:12;;;;;;;11.43;6.95;;;436.00;1868.80;;;;;;5020892;28;20473;-73
2024/03/15 10:17:46;;;;;;;9.30;6.45;;;435.70;1868.80;;;;;;5019000;28;20022;-73
2024/03/15 10:20:12;;;;;;;8.50;6.18;;;435.90;1817.60;;;;;;5023921;28;20021;-72
2024/03/15 10:22:38;;;;;;;9.30;5.97;;;461.20;1817.60;;;;;;5026901;28;20507;-74
2024/03/15 10:25:16;;;;;;;8.43;5.60;;;461.20;1766.40;;;;;;5014840;28;20033;-75
2024/03/15 10:27:45;;;;;;;7.85;5.55;;;461.40;1766.40;;;;;;5013644;28;20156;-73
2024/03/15 10:30:16;;;;;;;7.18;5.00;;;461.60;1715.20;;;;;;5012132;28;20026;-76
2024/03/15 10:32:48;;;;;;;7.28;5.05;;;486.40;1664.00;;;;;;5016212;28;20022;-74
2024/03/15 10:35:19;;;;;;;7.15;4.78;;;461.70;1689.60;;;;;;5020054;28;20033;-75
2024/03/15 10:37:45;;;;;;;8.55;5.68;;;;;;;;;;5020942;28;20093;-77
2024/03/15 10:40:26;;;;;;;8.05;5.40;;;487.10;1689.60;;;;;;5015177;28;20040;-75
2024/03/15 10:42:57;;;;;;;8.02;5.30;;;486.80;1664.00;;;;;;5017813;28;20033;-76
2024/03/15 10:45:24;;;;;;;8.02;5.55;;;487.20;1664.00;;;;;;5016177;28;20602;-77
2024/03/15 10:47:51;;;;;;;7.38;5.50;;;487.10;1612.80;;;;;;5017220;28;20105;-72
2024/03/15 10:50:22;;;;;;;7.70;5.75;;;512.20;1587.20;;;;;;5018136;28;20021;-76
2024/03/15 10:52:52;;;;;;;7.70;5.10;;;512.10;1561.60;;;;;;5015636;28;20026;-76
2024/03/15 10:55:26;;;;;;;6.43;4.90;;;;;;;;;;5014275;28;20805;-79
2024/03/15 10:57:56;;;;;;;6.93;5.10;;;;;;;;;;5017464;28;20029;-76
2024/03/15 11:00:26;;;;;;;6.70;4.40;;;;;;;;;;5020792;28;20627;-77
2024/03/15 11:02:55;;;;;;;13.52;8.43;;;;;;;;;;5014285;28;20543;-77
2024/03/15 11:05:23;;;;;;;9.25;6.53;;;512.10;1561.60;;;;;;5016371;28;20033;-77
2024/03/15 11:08:04;;;;;;;6.95;5.35;;;512.20;1868.80;;;;;;5021547;28;20022;-75
2024/03/15 11:10:31;;;;;;;6.72;4.43;;;487.30;1612.80;;;;;;5032458;28;20045;-78
2024/03/15 11:13:01;;;;;;;5.68;4.40;;;512.70;1536.00;;;;;;5029343;28;20024;-78
2024/03/15 11:15:35;;;;;;;8.15;5.22;;;512.50;1561.60;;;;;;5032557;28;20056;-78
2024/03/15 11:18:08;;;;;;;6.57;5.03;;;487.30;1587.20;;;;;;5015249;28;20532;-77
2024/03/15 11:20:52;;;;;;;7.30;5.00;;;512.20;1587.20;;;;;;5029378;28;20025;-78
2024/03/15 11:23:19;;;;;;;8.50;5.72;;;512.40;1561.60;;;;;;5034853;28;20034;-77
2024/03/15 11:25:58;;;;;;;8.10;5.93;;;512.00;1561.60;;;;;;5034860;28;20022;-77
2024/03/15 11:28:28;;;;;;;7.60;5.43;;;487.00;1612.80;;;;;;5031417;28;20061;-79
2024/03/15 11:30:58;;;;;;;8.27;4.80;;;487.00;1612.80;;;;;;5022206;28;20426;-77
2024/03/15 11:33:27;;;;;;;7.35;4.90;;;512.00;1587.20;;;;;;5026788;28;20447;-76
2024/03/15 11:35:53;;;;;;;8.55;5.25;;;512.10;1587.20;;;;;;5030079;28;20040;-73
2024/03/15 11:38:20;;;;;;;12.73;7.65;;;512.40;1587.20;;;;;;5035910;28;20144;-78
2024/03/15 11:40:47;;;;;;;8.70;5.82;;;512.10;1587.20;;;;;;5035862;28;20145;-76
2024/03/15 11:43:14;;;;;;;8.23;5.03;;;512.40;1561.60;;;;;;5035026;28;20026;-77
2024/03/15 11:45:43;;;;;;;8.70;5.10;;;512.20;1561.60;;;;;;5026019;28;20021;-74
2024/03/15 11:48:19;;;;;;;8.15;5.13;;;512.00;1561.60;;;;;;5028423;28;20033;-77
2024/03/15 11:50:50;;;;;;;12.07;8.00;;;487.30;1561.60;;;;;;5035402;28;20026;-74
2024/03/15 11:53:18;;;;;;;7.55;5.20;;;487.20;1587.20;;;;;;5045506;28;20391;-75
2024/03/15 11:55:51;;;;;;;7.28;4.95;;;512.00;1561.60;;;;;;5032953;28;20026;-76
2024/03/15 11:58:22;;;;;;;7.97;6.13;;;512.00;1510.40;;;;;;5032385;28;20021;-78
2024/03/15 12:00:50;;;;;;;7.70;5.22;;;512.30;1510.40;;;;;;5041974;28;20049;-74
2024/03/15 12:03:22;;;;;;;6.55;5.05;;;512.70;1510.40;;;;;;5039381;28;20372;-75
2024/03/15 12:05:48;;;;;;;7.25;4.70;;;512.40;1510.40;;;;;;5036769;28;20024;-78
2024/03/15 12:08:20;;;;;;;7.05;4.63;;;512.70;1510.40;;;;;;5021236;28;20448;-79
2024/03/15 12:10:46;;;;;;;7.65;5.32;;;;;;;;;;5032221;28;20393;-77
2024/03/15 12:13:19;;;;;;;7.68;5.05;;;538.00;1510.40;;;;;;5031924;28;20570;-78
2024/03/15 12:15:46;;;;;;;8.18;4.93;;;537.90;1510.40;;;;;;5033809;28;20079;-79